createdAt,value
2022-08-27T00:02:24.624Z,33.90
2022-08-27T00:04:53.592Z,43.03
2022-08-27T00:07:22.229Z,32.97
2022-08-27T00:09:50.767Z,44.60
2022-08-27T00:12:19.308Z,38.20
2022-08-27T00:14:47.820Z,35.83
2022-08-27T00:17:16.447Z,38.17
2022-08-27T00:19:46.342Z,39.77
2022-08-27T00:22:15.075Z,36.30
2022-08-27T00:24:49.060Z,38.80
2022-08-27T00:27:18.297Z,32.50
2022-08-27T00:29:47.254Z,33.37
2022-08-27T00:32:16.258Z,48.43
2022-08-27T00:34:47.259Z,40.70
2022-08-27T00:37:15.900Z,33.93
2022-08-27T00:39:44.471Z,42.00
2022-08-27T00:42:13.174Z,42.63
2022-08-27T00:44:41.892Z,37.20
2022-08-27T00:47:26.439Z,43.23
2022-08-27T00:49:59.922Z,33.80
2022-08-27T00:52:30.982Z,37.00
2022-08-27T00:55:03.991Z,37.57
2022-08-27T00:57:33.879Z,37.97
2022-08-27T01:00:03.283Z,43.53
2022-08-27T01:02:32.762Z,31.40
2022-08-27T01:05:07.029Z,37.57
2022-08-27T01:07:40.732Z,40.43
2022-08-27T01:10:13.511Z,39.40
2022-08-27T01:12:42.243Z,35.10
2022-08-27T01:15:18.128Z,47.73
2022-08-27T01:17:49.781Z,34.03
2022-08-27T01:20:23.442Z,37.20
2022-08-27T01:23:00.296Z,36.83
2022-08-27T01:25:31.107Z,38.63
2022-08-27T01:28:01.346Z,33.97
2022-08-27T01:30:31.314Z,56.63
2022-08-27T01:32:59.903Z,36.57
2022-08-27T01:35:28.933Z,33.30
2022-08-27T01:37:59.658Z,33.77
2022-08-27T01:40:30.671Z,31.33
2022-08-27T01:43:00.252Z,42.73
2022-08-27T01:45:31.362Z,33.30
2022-08-27T01:48:00.414Z,29.47
2022-08-27T01:50:32.203Z,44.87
2022-08-27T01:53:05.369Z,31.63
2022-08-27T01:55:35.926Z,34.50
2022-08-27T01:58:04.856Z,48.83
2022-08-27T02:00:36.364Z,31.00
2022-08-27T02:03:05.395Z,33.17
2022-08-27T02:05:44.636Z,31.77
2022-08-27T02:08:15.951Z,35.03
2022-08-27T02:10:48.054Z,26.87
2022-08-27T02:13:17.367Z,33.53
2022-08-27T02:15:46.615Z,35.00
2022-08-27T02:18:15.906Z,37.70
2022-08-27T02:20:45.594Z,34.73
2022-08-27T02:23:14.514Z,35.83
2022-08-27T02:25:43.265Z,33.10
2022-08-27T02:28:13.197Z,39.80
2022-08-27T02:30:41.872Z,31.30
2022-08-27T02:33:10.465Z,38.00
2022-08-27T02:35:40.713Z,33.53
2022-08-27T02:38:09.801Z,32.20
2022-08-27T02:40:38.510Z,30.53
2022-08-27T02:43:07.798Z,33.53
2022-08-27T02:45:38.016Z,39.50
2022-08-27T02:48:07.805Z,32.20
2022-08-27T02:50:36.489Z,33.57
2022-08-27T02:53:06.741Z,32.43
2022-08-27T02:55:35.765Z,37.23
2022-08-27T02:58:05.723Z,29.63
2022-08-27T03:00:34.629Z,36.10
2022-08-27T03:03:05.205Z,41.93
2022-08-27T03:05:33.818Z,35.23
2022-08-27T03:08:03.517Z,43.47
2022-08-27T03:10:32.427Z,43.97
2022-08-27T03:13:00.992Z,38.57
2022-08-27T03:15:29.617Z,41.80
2022-08-27T03:18:15.298Z,37.13
2022-08-27T03:20:46.700Z,40.27
2022-08-27T03:23:16.578Z,48.60
2022-08-27T03:25:47.530Z,48.80
2022-08-27T03:28:23.128Z,43.07
2022-08-27T03:30:53.478Z,51.80
2022-08-27T03:33:22.752Z,46.10
2022-08-27T03:35:53.239Z,54.53
2022-08-27T03:38:21.898Z,49.33
2022-08-27T03:40:50.949Z,57.90
2022-08-27T03:43:21.570Z,45.03
2022-08-27T03:46:01.296Z,50.57
2022-08-27T03:48:31.993Z,53.77
2022-08-27T03:51:06.651Z,51.73
2022-08-27T03:53:35.716Z,55.30
2022-08-27T03:56:04.759Z,49.57
2022-08-27T03:58:33.477Z,49.83
2022-08-27T04:01:02.597Z,44.67
2022-08-27T04:03:31.339Z,48.37
2022-08-27T04:06:01.617Z,49.90
2022-08-27T04:08:30.339Z,48.53
2022-08-27T04:10:58.900Z,48.63
2022-08-27T04:13:27.481Z,49.47
2022-08-27T04:15:56.935Z,46.87
2022-08-27T04:18:25.759Z,48.97
2022-08-27T04:20:54.583Z,50.03
2022-08-27T04:23:24.652Z,47.93
2022-08-27T04:25:53.194Z,50.93
2022-08-27T04:28:21.851Z,45.60
2022-08-27T04:30:50.502Z,43.87
2022-08-27T04:33:19.263Z,45.40
2022-08-27T04:35:47.879Z,44.70
2022-08-27T04:38:16.484Z,52.00
2022-08-27T04:41:03.711Z,43.23
2022-08-27T04:43:32.251Z,49.23
2022-08-27T04:46:00.855Z,44.80
2022-08-27T04:48:29.468Z,45.80
2022-08-27T04:50:58.309Z,44.00
2022-08-27T04:53:26.996Z,44.20
2022-08-27T04:55:58.237Z,46.53
2022-08-27T04:58:27.377Z,46.80
2022-08-27T05:00:58.087Z,50.93
2022-08-27T05:03:27.190Z,43.13
2022-08-27T05:06:01.392Z,48.43
2022-08-27T05:08:30.320Z,37.47
2022-08-27T05:11:00.533Z,34.60
2022-08-27T05:13:30.158Z,35.70
2022-08-27T05:16:03.444Z,36.03
2022-08-27T05:18:35.263Z,36.57
2022-08-27T05:21:07.166Z,33.77
2022-08-27T05:23:41.311Z,37.30
2022-08-27T05:26:11.253Z,39.73
2022-08-27T05:28:39.829Z,41.37
2022-08-27T05:31:10.876Z,35.73
2022-08-27T05:33:40.408Z,50.10
2022-08-27T05:36:16.088Z,40.83
2022-08-27T05:38:44.686Z,38.07
2022-08-27T05:41:16.860Z,43.63
2022-08-27T05:43:49.863Z,44.70
2022-08-27T05:46:22.389Z,47.43
2022-08-27T05:48:52.083Z,43.23
2022-08-27T05:51:25.762Z,46.30
2022-08-27T05:53:58.321Z,41.53
2022-08-27T05:56:30.521Z,44.73
2022-08-27T05:59:16.887Z,55.97
2022-08-27T06:01:47.558Z,46.10
2022-08-27T06:04:18.039Z,44.77
2022-08-27T06:06:47.689Z,45.63
2022-08-27T06:09:18.773Z,41.83
2022-08-27T06:11:49.674Z,44.43
2022-08-27T06:14:18.302Z,40.23
2022-08-27T06:16:47.348Z,46.20
2022-08-27T06:19:16.409Z,36.00
2022-08-27T06:21:45.367Z,34.63
2022-08-27T06:24:14.767Z,30.67
2022-08-27T06:26:45.082Z,36.00
2022-08-27T06:29:15.688Z,29.47
2022-08-27T06:31:44.373Z,26.53
2022-08-27T06:34:13.269Z,25.30
2022-08-27T06:36:43.515Z,29.23
2022-08-27T06:39:15.522Z,41.33
2022-08-27T06:41:46.197Z,24.93
2022-08-27T06:44:16.296Z,26.43
2022-08-27T06:46:45.085Z,25.50
2022-08-27T06:49:14.353Z,31.43
2022-08-27T06:51:46.814Z,30.30
2022-08-27T06:54:17.282Z,30.27
2022-08-27T06:56:45.854Z,42.00
2022-08-27T06:59:18.644Z,49.10
2022-08-27T07:01:51.370Z,31.40
2022-08-27T07:04:27.812Z,37.67
2022-08-27T07:07:02.486Z,36.80
2022-08-27T07:09:32.545Z,34.83
2022-08-27T07:12:01.720Z,31.90
2022-08-27T07:14:37.816Z,29.17
2022-08-27T07:17:10.972Z,25.70
2022-08-27T07:19:45.322Z,34.30
2022-08-27T07:22:14.051Z,34.93
2022-08-27T07:24:42.701Z,28.07
2022-08-27T07:27:11.612Z,28.13
2022-08-27T07:29:41.545Z,28.20
2022-08-27T07:32:10.407Z,30.60
2022-08-27T07:34:39.018Z,30.93
2022-08-27T07:37:07.588Z,26.30
2022-08-27T07:39:36.198Z,28.33
2022-08-27T07:42:22.811Z,27.37
2022-08-27T07:44:52.675Z,27.50
2022-08-27T07:47:21.423Z,26.60
2022-08-27T07:49:50.230Z,28.87
2022-08-27T07:52:22.520Z,25.70
2022-08-27T07:54:53.240Z,32.40
2022-08-27T07:57:21.815Z,32.03
2022-08-27T07:59:53.183Z,26.23
2022-08-27T08:02:21.806Z,37.07
2022-08-27T08:04:50.555Z,44.37
2022-08-27T08:07:19.231Z,33.93
2022-08-27T08:09:47.839Z,25.87
2022-08-27T08:12:16.427Z,38.30
2022-08-27T08:14:45.747Z,28.80
2022-08-27T08:17:15.819Z,31.93
2022-08-27T08:19:57.236Z,25.67
2022-08-27T08:22:32.935Z,33.73
2022-08-27T08:25:01.657Z,29.40
2022-08-27T08:27:30.247Z,25.20
2022-08-27T08:29:59.040Z,31.80
2022-08-27T08:32:29.872Z,26.73
2022-08-27T08:35:00.026Z,27.33
2022-08-27T08:37:29.235Z,23.93
2022-08-27T08:39:57.890Z,22.00
2022-08-27T08:42:35.865Z,22.50
2022-08-27T08:45:06.607Z,20.77
2022-08-27T08:47:44.698Z,22.47
2022-08-27T08:50:19.809Z,22.60
2022-08-27T08:52:55.092Z,23.60
2022-08-27T08:55:38.687Z,22.60
2022-08-27T08:58:18.089Z,18.83
2022-08-27T09:00:49.780Z,22.60
2022-08-27T09:03:20.209Z,25.93
2022-08-27T09:05:55.849Z,26.47
2022-08-27T09:08:35.428Z,25.57
2022-08-27T09:11:10.771Z,25.00
2022-08-27T09:13:44.430Z,25.50
2022-08-27T09:16:13.095Z,32.67
2022-08-27T09:18:45.434Z,26.37
2022-08-27T09:21:27.842Z,22.00
2022-08-27T09:24:05.216Z,26.70
2022-08-27T09:26:38.444Z,25.03
2022-08-27T09:29:22.392Z,20.00
2022-08-27T09:31:57.429Z,15.20
2022-08-27T09:34:35.617Z,13.57
2022-08-27T09:37:08.681Z,14.10
2022-08-27T09:39:49.664Z,10.30
2022-08-27T09:42:31.974Z,13.50
2022-08-27T09:45:00.884Z,13.70
2022-08-27T09:47:29.883Z,9.47
2022-08-27T09:50:10.280Z,16.40
2022-08-27T09:52:51.322Z,11.90
2022-08-27T09:55:32.143Z,10.67
2022-08-27T09:58:01.522Z,12.57
2022-08-27T10:00:37.380Z,14.67
2022-08-27T10:03:07.013Z,9.10
2022-08-27T10:05:41.065Z,5.67
2022-08-27T10:08:20.774Z,8.70
2022-08-27T10:10:56.711Z,6.97
2022-08-27T10:13:31.891Z,4.50
2022-08-27T10:16:55.410Z,7.17
2022-08-27T10:19:46.562Z,9.27
2022-08-27T10:22:28.055Z,5.87
2022-08-27T10:25:08.099Z,5.57
2022-08-27T10:27:46.882Z,7.60
2022-08-27T10:30:19.438Z,6.70
2022-08-27T10:33:04.320Z,11.50
2022-08-27T10:35:47.891Z,12.33
2022-08-27T10:38:31.196Z,7.93
2022-08-27T10:41:07.302Z,11.60
2022-08-27T10:43:56.355Z,7.93
2022-08-27T10:46:50.245Z,7.70
2022-08-27T10:49:31.129Z,8.30
2022-08-27T10:52:08.301Z,8.63
2022-08-27T10:54:41.644Z,8.50
2022-08-27T10:57:35.349Z,8.53
2022-08-27T11:00:13.556Z,9.40
2022-08-27T11:02:45.498Z,5.87
2022-08-27T11:05:20.209Z,9.10
2022-08-27T11:07:54.598Z,7.57
2022-08-27T11:10:29.113Z,7.43
2022-08-27T11:13:01.693Z,8.03
2022-08-27T11:15:34.200Z,7.43
2022-08-27T11:18:09.739Z,6.80
2022-08-27T11:20:46.533Z,6.57
2022-08-27T11:23:18.635Z,8.77
2022-08-27T11:25:53.789Z,9.07
2022-08-27T11:28:29.799Z,8.40
2022-08-27T11:31:07.152Z,7.50
2022-08-27T11:33:45.480Z,8.30
2022-08-27T11:36:43.085Z,9.30
2022-08-27T11:39:26.302Z,8.43
2022-08-27T11:42:07.128Z,8.80
2022-08-27T11:44:43.119Z,8.97
2022-08-27T11:47:15.333Z,9.97
2022-08-27T11:49:48.783Z,9.33
2022-08-27T11:52:27.187Z,11.43
2022-08-27T11:55:12.023Z,10.67
2022-08-27T11:57:42.837Z,10.57
2022-08-27T12:00:21.517Z,12.97
2022-08-27T12:03:00.466Z,10.87
2022-08-27T12:05:38.273Z,11.57
2022-08-27T12:08:26.154Z,13.70
2022-08-27T12:11:14.628Z,12.30
2022-08-27T12:13:54.049Z,13.90
2022-08-27T12:16:32.307Z,12.90
2022-08-27T12:19:10.482Z,22.90
2022-08-27T12:21:52.799Z,14.13
2022-08-27T12:24:45.491Z,17.13
2022-08-27T12:27:28.260Z,14.30
2022-08-27T12:30:01.164Z,17.67
2022-08-27T12:32:33.554Z,17.50
2022-08-27T12:35:13.835Z,19.93
2022-08-27T12:37:48.454Z,18.27
2022-08-27T12:40:24.788Z,17.60
2022-08-27T12:43:04.801Z,19.57
2022-08-27T12:45:35.699Z,21.93
2022-08-27T12:48:04.542Z,27.87
2022-08-27T12:50:33.196Z,25.00
2022-08-27T12:53:17.110Z,18.47
2022-08-27T12:56:03.843Z,23.20
2022-08-27T12:58:42.946Z,21.37
2022-08-27T13:01:32.626Z,21.87
2022-08-27T13:04:02.078Z,26.00
2022-08-27T13:06:33.717Z,23.00
2022-08-27T13:09:04.868Z,26.53
2022-08-27T13:11:35.886Z,25.87
2022-08-27T13:14:10.668Z,34.40
2022-08-27T13:16:45.852Z,25.43
2022-08-27T13:19:22.646Z,25.80
2022-08-27T13:21:52.139Z,19.60
2022-08-27T13:24:27.788Z,26.60
2022-08-27T13:26:57.636Z,10.53
2022-08-27T13:29:27.078Z,14.23
2022-08-27T13:31:57.528Z,20.70
2022-08-27T13:34:29.112Z,12.33
2022-08-27T13:37:02.377Z,14.50
2022-08-27T13:39:31.485Z,17.40
2022-08-27T13:42:01.950Z,16.30
2022-08-27T13:44:36.043Z,16.60
2022-08-27T13:47:08.877Z,17.00
2022-08-27T13:49:39.933Z,17.37
2022-08-27T13:52:23.489Z,16.63
2022-08-27T13:54:58.286Z,21.37
2022-08-27T13:57:31.369Z,22.17
2022-08-27T14:00:11.901Z,20.57
2022-08-27T14:02:42.359Z,17.07
2022-08-27T14:05:32.393Z,18.03
2022-08-27T14:08:03.036Z,16.40
2022-08-27T14:10:37.400Z,22.13
2022-08-27T14:13:09.146Z,17.03
2022-08-27T14:15:40.689Z,19.70
2022-08-27T14:18:36.791Z,17.40
2022-08-27T14:21:11.016Z,25.83
2022-08-27T14:23:39.786Z,18.33
2022-08-27T14:26:09.880Z,22.00
2022-08-27T14:28:38.431Z,20.70
2022-08-27T14:31:07.228Z,16.07
2022-08-27T14:33:37.519Z,16.80
2022-08-27T14:36:06.839Z,18.03
2022-08-27T14:38:43.013Z,15.80
2022-08-27T14:41:14.346Z,13.77
2022-08-27T14:43:43.512Z,17.43
2022-08-27T14:46:24.680Z,19.03
2022-08-27T14:48:56.603Z,17.30
2022-08-27T14:51:28.358Z,19.90
2022-08-27T14:53:57.825Z,18.53
2022-08-27T14:56:27.425Z,21.07
2022-08-27T14:58:56.108Z,21.03
2022-08-27T15:01:26.269Z,22.93
2022-08-27T15:03:57.045Z,17.13
2022-08-27T15:06:27.157Z,21.07
2022-08-27T15:08:56.332Z,20.50
2022-08-27T15:11:27.688Z,17.70
2022-08-27T15:13:58.200Z,18.00
2022-08-27T15:16:32.574Z,23.07
2022-08-27T15:19:03.456Z,18.33
2022-08-27T15:21:32.382Z,16.40
2022-08-27T15:24:03.277Z,15.67
2022-08-27T15:26:33.198Z,17.57
2022-08-27T15:29:06.322Z,15.30
2022-08-27T15:31:35.911Z,17.83
2022-08-27T15:34:06.606Z,13.93
2022-08-27T15:36:35.352Z,15.20
2022-08-27T15:39:04.867Z,21.83
2022-08-27T15:41:46.094Z,15.17
2022-08-27T15:44:23.010Z,18.00
2022-08-27T15:46:51.980Z,17.73
2022-08-27T15:49:21.983Z,17.23
2022-08-27T15:51:52.025Z,17.67
2022-08-27T15:54:20.858Z,17.07
2022-08-27T15:56:49.382Z,14.33
2022-08-27T15:59:18.587Z,15.90
2022-08-27T16:01:48.129Z,17.63
2022-08-27T16:04:17.608Z,14.23
2022-08-27T16:06:49.108Z,16.00
2022-08-27T16:09:17.774Z,18.80
2022-08-27T16:11:46.352Z,16.67
2022-08-27T16:14:15.643Z,14.83
2022-08-27T16:16:47.108Z,18.63
2022-08-27T16:19:16.827Z,22.90
2022-08-27T16:21:47.002Z,17.77
2022-08-27T16:24:16.373Z,21.53
2022-08-27T16:26:44.911Z,18.33
2022-08-27T16:29:13.398Z,21.67
2022-08-27T16:31:41.982Z,20.50
2022-08-27T16:34:18.294Z,24.10
2022-08-27T16:37:16.112Z,22.53
2022-08-27T16:39:44.688Z,24.70
2022-08-27T16:42:13.216Z,21.30
2022-08-27T16:44:42.310Z,19.80
2022-08-27T16:47:10.934Z,21.80
2022-08-27T16:49:57.214Z,23.70
2022-08-27T16:52:27.248Z,25.30
2022-08-27T16:54:56.865Z,26.70
2022-08-27T16:57:25.498Z,20.07
2022-08-27T16:59:54.996Z,27.43
2022-08-27T17:02:30.498Z,18.30
2022-08-27T17:05:17.406Z,22.73
2022-08-27T17:07:51.098Z,22.17
2022-08-27T17:10:20.453Z,23.57
2022-08-27T17:12:49.614Z,35.43
2022-08-27T17:15:18.974Z,22.90
2022-08-27T17:17:48.055Z,26.43
2022-08-27T17:20:43.201Z,22.07
2022-08-27T17:24:12.791Z,23.57
2022-08-27T17:26:47.700Z,22.80
2022-08-27T17:29:16.355Z,24.13
2022-08-27T17:32:08.074Z,29.63
2022-08-27T17:34:47.178Z,20.60
2022-08-27T17:38:11.483Z,22.83
2022-08-27T17:40:52.390Z,18.70
2022-08-27T17:43:41.783Z,20.10
2022-08-27T17:46:11.723Z,20.17
2022-08-27T17:48:43.844Z,21.83
2022-08-27T17:51:13.890Z,14.33
2022-08-27T17:53:49.895Z,13.40
2022-08-27T17:56:20.374Z,14.13
2022-08-27T17:58:52.422Z,16.83
2022-08-27T18:01:40.123Z,20.97
2022-08-27T18:08:02.916Z,15.27
2022-08-27T18:10:49.278Z,13.37
2022-08-27T18:16:30.553Z,17.87
2022-08-27T18:19:34.415Z,18.33
2022-08-27T18:22:51.834Z,21.90
2022-08-27T18:25:35.283Z,13.57
2022-08-27T18:28:16.062Z,16.57
2022-08-27T18:31:22.193Z,13.70
2022-08-27T18:34:40.790Z,18.90
2022-08-27T18:47:38.974Z,21.47
2022-08-27T18:50:17.868Z,14.30
2022-08-27T18:55:39.976Z,32.30
2022-08-27T18:59:01.168Z,21.50
2022-08-27T19:04:48.146Z,15.20
2022-08-27T19:07:45.218Z,14.83
2022-08-27T19:10:42.062Z,15.37
2022-08-27T19:28:05.591Z,11.90
2022-08-27T19:31:12.088Z,24.27
2022-08-27T19:34:14.297Z,11.07
2022-08-27T19:37:20.350Z,12.27
2022-08-27T19:40:51.026Z,8.67
2022-08-27T19:43:52.499Z,14.23
2022-08-27T19:46:36.306Z,9.97
2022-08-27T19:49:17.774Z,11.43
2022-08-27T19:52:08.571Z,8.23
2022-08-27T19:58:13.624Z,11.20
2022-08-27T20:00:42.810Z,8.00
2022-08-27T20:03:22.756Z,8.20
2022-08-27T20:06:00.472Z,9.70
2022-08-27T20:08:29.452Z,11.43
2022-08-27T20:11:28.161Z,12.83
2022-08-27T20:13:59.040Z,10.50
2022-08-27T20:16:28.556Z,8.83
2022-08-27T20:19:00.546Z,6.53
2022-08-27T20:21:29.915Z,8.13
2022-08-27T20:23:59.191Z,9.50
2022-08-27T20:26:30.706Z,5.73
2022-08-27T20:29:03.837Z,6.57
2022-08-27T20:31:32.823Z,6.30
2022-08-27T20:34:01.919Z,6.03
2022-08-27T20:37:06.577Z,7.60
2022-08-27T20:39:36.148Z,7.00
2022-08-27T20:42:05.982Z,7.30
2022-08-27T20:45:17.124Z,11.70
2022-08-27T20:47:48.101Z,11.17
2022-08-27T20:50:17.909Z,9.17
2022-08-27T20:52:46.885Z,17.60
2022-08-27T20:55:23.685Z,9.83
2022-08-27T20:58:12.690Z,10.97
2022-08-27T21:00:53.113Z,13.73
2022-08-27T21:03:21.854Z,14.90
2022-08-27T21:05:50.843Z,7.63
2022-08-27T21:08:21.818Z,8.00
2022-08-27T21:10:53.110Z,7.80
2022-08-27T21:13:22.747Z,7.87
2022-08-27T21:21:34.256Z,6.03
2022-08-27T21:24:03.207Z,15.03
2022-08-27T21:26:31.888Z,13.20
2022-08-27T21:29:00.569Z,10.53
2022-08-27T21:31:30.905Z,7.43
2022-08-27T21:33:59.695Z,5.73
2022-08-27T21:36:34.993Z,12.20
2022-08-27T21:39:04.042Z,9.40
2022-08-27T21:41:37.213Z,9.80
2022-08-27T21:44:18.314Z,13.83
2022-08-27T21:46:48.490Z,17.80
2022-08-27T21:49:17.246Z,9.80
2022-08-27T21:51:45.832Z,12.47
2022-08-27T21:54:14.457Z,7.63
2022-08-27T21:56:43.022Z,15.40
2022-08-27T21:59:11.635Z,11.90
2022-08-27T22:01:40.619Z,17.30
2022-08-27T22:04:10.743Z,11.83
2022-08-27T22:06:39.311Z,11.47
2022-08-27T22:09:07.934Z,9.57
2022-08-27T22:11:42.593Z,9.23
2022-08-27T22:14:13.599Z,14.40
2022-08-27T22:16:42.214Z,12.87
2022-08-27T22:19:12.202Z,9.63
2022-08-27T22:21:40.729Z,11.33
2022-08-27T22:24:09.745Z,13.03
2022-08-27T22:26:38.467Z,13.80
2022-08-27T22:29:07.390Z,7.30
2022-08-27T22:31:44.252Z,8.30
2022-08-27T22:34:15.128Z,13.00
2022-08-27T22:36:45.055Z,18.30
2022-08-27T22:39:13.612Z,9.63
2022-08-27T22:41:43.934Z,18.13
2022-08-27T22:44:17.505Z,15.10
2022-08-27T22:46:46.236Z,10.27
2022-08-27T22:49:16.341Z,12.73
2022-08-27T22:51:44.961Z,13.40
2022-08-27T22:54:13.534Z,13.33
2022-08-27T22:56:42.638Z,13.97
2022-08-27T22:59:11.337Z,11.20
2022-08-27T23:01:40.003Z,10.03
2022-08-27T23:04:08.987Z,10.30
2022-08-27T23:06:39.434Z,10.10
2022-08-27T23:09:08.034Z,16.97
2022-08-27T23:11:37.598Z,8.80
2022-08-27T23:14:06.233Z,10.57
2022-08-27T23:16:34.916Z,9.93
2022-08-27T23:19:03.886Z,11.67
2022-08-27T23:21:32.413Z,12.83
2022-08-27T23:24:02.771Z,15.00
2022-08-27T23:26:48.667Z,11.27
2022-08-27T23:29:17.603Z,12.60
2022-08-27T23:31:46.242Z,14.80
2022-08-27T23:34:15.365Z,14.03
2022-08-27T23:36:44.356Z,18.80
2022-08-27T23:39:15.003Z,21.93
2022-08-27T23:41:44.850Z,21.30
2022-08-27T23:44:13.667Z,19.30
2022-08-27T23:46:42.359Z,21.00
2022-08-27T23:49:11.589Z,17.47
2022-08-27T23:51:40.389Z,29.30
2022-08-27T23:54:09.276Z,23.60
2022-08-27T23:56:39.503Z,23.10
2022-08-27T23:59:08.189Z,20.93
